Time;durP1;ratioP1;P1;durP2;ratioP2;P2;SDS_P1;SDS_P2;PMS_P1;PMS_P2;Temp;Humidity;BMP_temperature;BMP_pressure;BME280_temperature;BME280_humidity;BME280_pressure;Samples;Min_cycle;Max_cycle;Signal;HPM_P1;HPM_P2
2022/12/05 00:01:33;;;;;;;;;;;;;;;4.68;78.48;98112.28;7388804;19;20633;-74
2022/12/05 00:04:01;;;;;;;;;;;;;;;4.56;78.57;98110.66;7382047;19;19994;-74
2022/12/05 00:06:28;;;;;;;;;;;;;;;4.59;78.59;98119.09;7386082;19;19922;-74
2022/12/05 00:08:55;;;;;;;;;;;;;;;4.35;78.17;98119.28;7386081;19;19927;-74
2022/12/05 00:11:23;;;;;;;;;;;;;;;4.19;78.80;98121.47;7385388;19;20670;-73
2022/12/05 00:13:50;;;;;;;;;;;;;;;4.08;79.12;98127.56;7382982;19;19926;-74
2022/12/05 00:16:18;;;;;;;;;;;;;;;4.07;79.07;98128.50;7388456;19;20339;-74
2022/12/05 00:18:44;;;;;;;;;;;;;;;4.13;78.75;98124.56;7383142;19;19936;-74
2022/12/05 00:21:12;;;;;;;;;;;;;;;4.18;78.47;98135.50;7384430;19;19955;-74
2022/12/05 00:23:39;;;;;;;;;;;;;;;4.19;79.12;98129.34;7385353;19;20263;-74
2022/12/05 00:26:06;;;;;;;;;;;;;;;4.22;78.95;98123.03;7389784;19;19923;-74
2022/12/05 00:28:33;;;;;;;;;;;;;;;4.17;79.31;98126.81;7389265;19;19950;-74
2022/12/05 00:31:03;;;;;;;;;;;;;;;4.28;79.39;98125.16;7383334;19;19934;-74
2022/12/05 00:33:30;;;;;;;;;;;;;;;4.52;78.85;98130.19;7385036;19;19925;-74
2022/12/05 00:36:03;;;;;;;;;;;;;;;4.62;78.37;98123.25;7383910;19;19952;-73
2022/12/05 00:38:30;;;;;;;;;;;;;;;4.52;78.72;98115.31;7383627;19;19915;-74
2022/12/05 00:41:01;;;;;;;;;;;;;;;4.40;78.52;98125.00;7385724;19;19919;-74
2022/12/05 00:43:27;;;;;;;;;;;;;;;4.48;78.36;98119.16;7388044;19;19918;-74
2022/12/05 00:45:54;;;;;;;;;;;;;;;4.43;78.77;98112.63;7388282;19;19923;-74
2022/12/05 00:48:20;;;;;;;;;;;;;;;4.50;79.10;98108.53;7389392;19;19947;-75
2022/12/05 00:50:47;;;;;;;;;;;;;;;4.47;78.97;98114.84;7385397;19;19926;-74
2022/12/05 00:53:13;;;;;;;;;;;;;;;4.42;79.35;98122.25;7386002;19;19910;-74
2022/12/05 00:55:40;;;;;;;;;;;;;;;4.38;79.21;98126.91;7382279;19;19942;-74
2022/12/05 00:58:06;;;;;;;;;;;;;;;4.38;79.52;98131.31;7387442;19;19919;-74
2022/12/05 01:00:33;;;;;;;;;;;;;;;4.50;79.42;98137.34;7386022;19;19946;-74
2022/12/05 01:02:59;;;;;;;;;;;;;;;4.60;78.42;98131.22;7387025;19;19919;-74
2022/12/05 01:05:26;;;;;;;;;;;;;;;4.47;78.72;98124.50;7384511;19;20533;-74
2022/12/05 01:07:53;;;;;;;;;;;;;;;4.52;78.91;98141.50;7387933;19;19934;-74
2022/12/05 01:10:19;;;;;;;;;;;;;;;4.55;78.47;98149.13;7384739;19;20274;-74
2022/12/05 01:12:46;;;;;;;;;;;;;;;4.49;78.90;98149.63;7384500;19;19915;-74
2022/12/05 01:15:12;;;;;;;;;;;;;;;4.51;79.34;98159.97;7382315;19;19926;-74
2022/12/05 01:17:39;;;;;;;;;;;;;;;4.52;79.25;98164.25;7388340;19;19915;-74
2022/12/05 01:20:06;;;;;;;;;;;;;;;4.53;79.18;98172.00;7387479;19;19927;-74
2022/12/05 01:22:32;;;;;;;;;;;;;;;4.69;78.29;98181.25;7385545;19;19947;-74
2022/12/05 01:24:59;;;;;;;;;;;;;;;4.64;77.83;98184.25;7381287;19;19927;-74
2022/12/05 01:27:26;;;;;;;;;;;;;;;4.52;77.12;98190.44;7385871;19;19919;-74
2022/12/05 01:29:53;;;;;;;;;;;;;;;4.28;76.99;98186.19;7383842;19;19968;-74
2022/12/05 01:32:20;;;;;;;;;;;;;;;4.38;77.28;98192.38;7382785;19;19938;-74
2022/12/05 01:34:46;;;;;;;;;;;;;;;4.17;76.97;98186.22;7385101;19;19922;-74
2022/12/05 01:37:13;;;;;;;;;;;;;;;4.18;77.66;98182.63;7387103;19;19942;-74
2022/12/05 01:39:40;;;;;;;;;;;;;;;4.25;77.17;98194.31;7388887;19;19921;-74
2022/12/05 01:42:06;;;;;;;;;;;;;;;4.30;77.10;98189.53;7384972;19;19923;-74
2022/12/05 01:44:33;;;;;;;;;;;;;;;4.32;76.74;98190.25;7381741;19;19919;-74
2022/12/05 01:46:59;;;;;;;;;;;;;;;4.14;77.22;98189.09;7383268;19;20342;-74
2022/12/05 01:49:26;;;;;;;;;;;;;;;4.18;77.01;98180.00;7387151;19;20028;-74
2022/12/05 01:52:00;;;;;;;;;;;;;;;4.05;76.75;98179.31;7385340;19;19947;-74
2022/12/05 01:54:27;;;;;;;;;;;;;;;4.15;76.54;98172.41;7383226;19;19922;-74
2022/12/05 01:57:00;;;;;;;;;;;;;;;4.18;77.03;98188.69;7381445;19;20520;-74
2022/12/05 01:59:30;;;;;;;;;;;;;;;4.15;76.72;98188.94;7380145;19;19926;-74
2022/12/05 02:01:57;;;;;;;;;;;;;;;4.13;77.00;98182.16;7382215;19;19919;-74
2022/12/05 02:04:23;;;;;;;;;;;;;;;3.96;76.87;98179.06;7383515;19;20323;-74
2022/12/05 02:06:50;;;;;;;;;;;;;;;4.04;77.69;98186.34;7384855;19;19919;-74
2022/12/05 02:09:16;;;;;;;;;;;;;;;3.91;77.45;98186.44;7385120;19;19926;-74
2022/12/05 02:11:46;;;;;;;;;;;;;;;3.87;77.69;98187.66;7383247;19;19915;-74
2022/12/05 02:14:15;;;;;;;;;;;;;;;3.58;77.65;98189.03;7382090;19;19915;-74
2022/12/05 02:16:45;;;;;;;;;;;;;;;3.53;78.09;98189.41;7379037;19;19922;-74
2022/12/05 02:19:14;;;;;;;;;;;;;;;3.57;78.08;98187.38;7382998;19;20526;-74
2022/12/05 02:21:44;;;;;;;;;;;;;;;3.68;78.42;98196.06;7385003;19;19915;-74
2022/12/05 02:24:29;;;;;;;;;;;;;;;3.71;78.20;98200.22;7383754;19;19931;-74
2022/12/05 02:26:59;;;;;;;;;;;;;;;3.84;78.33;98200.94;7384298;19;19927;-74
2022/12/05 02:29:37;;;;;;;;;;;;;;;3.68;77.92;98201.28;7384229;19;19950;-74
2022/12/05 02:32:23;;;;;;;;;;;;;;;3.73;77.90;98201.78;7381579;19;19922;-74
2022/12/05 02:34:53;;;;;;;;;;;;;;;3.84;77.98;98205.34;7377183;19;19931;-74
2022/12/05 02:37:31;;;;;;;;;;;;;;;3.89;78.47;98213.69;7384546;19;19944;-74
2022/12/05 02:40:09;;;;;;;;;;;;;;;3.59;78.57;98219.47;7383186;19;19923;-74
2022/12/05 02:42:54;;;;;;;;;;;;;;;3.63;78.58;98223.50;7384296;19;19939;-74
2022/12/05 02:45:22;;;;;;;;;;;;;;;3.78;78.72;98234.63;7382598;19;19939;-74
2022/12/05 02:47:52;;;;;;;;;;;;;;;3.87;78.15;98232.16;7386603;19;19954;-74
2022/12/05 02:50:22;;;;;;;;;;;;;;;3.84;78.00;98232.34;7380259;19;19938;-74
2022/12/05 02:52:49;;;;;;;;;;;;;;;3.79;78.12;98233.66;7381487;19;19934;-74
2022/12/05 02:55:16;;;;;;;;;;;;;;;3.90;78.34;98242.38;7380697;19;19923;-74
2022/12/05 02:57:44;;;;;;;;;;;;;;;3.67;77.91;98245.91;7383579;19;19927;-74
2022/12/05 03:00:11;;;;;;;;;;;;;;;3.82;78.21;98236.03;7385694;19;19919;-74
2022/12/05 03:02:38;;;;;;;;;;;;;;;3.91;78.77;98249.25;7385450;19;20367;-74
2022/12/05 03:05:16;;;;;;;;;;;;;;;3.90;78.50;98250.22;7379350;19;19927;-74
2022/12/05 03:07:43;;;;;;;;;;;;;;;3.73;78.75;98253.28;7378920;19;19915;-74
2022/12/05 03:10:10;;;;;;;;;;;;;;;3.84;78.66;98247.22;7383773;19;19914;-74
2022/12/05 03:12:38;;;;;;;;;;;;;;;3.69;78.48;98236.16;7380261;19;20354;-74
2022/12/05 03:15:06;;;;;;;;;;;;;;;3.99;78.39;98245.22;7380648;19;19943;-74
2022/12/05 03:17:43;;;;;;;;;;;;;;;4.12;77.52;98233.69;7382913;19;20362;-74
2022/12/05 03:20:13;;;;;;;;;;;;;;;4.18;77.91;98229.75;7381034;19;20342;-74
2022/12/05 03:22:59;;;;;;;;;;;;;;;4.21;77.73;98221.66;7380606;19;19950;-74
2022/12/05 03:25:29;;;;;;;;;;;;;;;4.21;77.21;98229.53;7376909;19;19927;-74
2022/12/05 03:27:58;;;;;;;;;;;;;;;4.31;77.29;98220.00;7381681;19;20346;-74
2022/12/05 03:30:26;;;;;;;;;;;;;;;4.31;77.86;98224.41;7391986;19;20402;-74
2022/12/05 03:32:57;;;;;;;;;;;;;;;4.35;77.69;98216.19;7388450;19;19914;-74
2022/12/05 03:35:42;;;;;;;;;;;;;;;4.32;77.99;98226.91;7387880;19;19935;-74
2022/12/05 03:38:10;;;;;;;;;;;;;;;4.35;78.12;98226.69;7390180;19;20317;-74
2022/12/05 03:40:36;;;;;;;;;;;;;;;4.44;76.83;98232.16;7382530;19;19943;-74
2022/12/05 03:43:11;;;;;;;;;;;;;;;4.48;76.78;98241.44;7388556;19;20033;-74
2022/12/05 03:45:40;;;;;;;;;;;;;;;4.39;77.56;98235.94;7389231;19;20285;-74
2022/12/05 03:48:14;;;;;;;;;;;;;;;4.41;77.20;98235.84;7390186;19;19922;-74
2022/12/05 03:50:41;;;;;;;;;;;;;;;4.42;77.21;98239.28;7385122;19;19918;-74
2022/12/05 03:53:10;;;;;;;;;;;;;;;4.57;76.64;98240.69;7390601;19;19930;-74
2022/12/05 03:55:46;;;;;;;;;;;;;;;4.54;77.18;98233.09;7387782;19;19978;-74
2022/12/05 03:58:14;;;;;;;;;;;;;;;4.54;76.90;98233.09;7384710;19;19954;-74
2022/12/05 04:00:41;;;;;;;;;;;;;;;4.53;76.95;98228.78;7385732;19;19919;-74
2022/12/05 04:03:18;;;;;;;;;;;;;;;4.60;77.40;98236.03;7388778;19;19954;-74
2022/12/05 04:05:58;;;;;;;;;;;;;;;4.46;76.72;98244.16;7385943;19;20045;-74
2022/12/05 04:08:25;;;;;;;;;;;;;;;4.45;77.02;98231.19;7385625;19;20644;-74
2022/12/05 04:10:53;;;;;;;;;;;;;;;4.40;77.76;98232.38;7383068;19;19923;-74
2022/12/05 04:13:24;;;;;;;;;;;;;;;4.63;76.81;98237.59;7383038;19;19923;-74
2022/12/05 04:18:41;;;;;;;;;;;;;;;4.46;77.67;98238.09;7387038;19;19923;-74
2022/12/05 04:26:42;;;;;;;;;;;;;;;4.47;78.29;98230.09;7388065;19;19915;-74
2022/12/05 04:29:16;;;;;;;;;;;;;;;4.46;78.51;98235.47;7386959;19;20275;-74
2022/12/05 04:31:43;;;;;;;;;;;;;;;4.54;78.44;98238.31;7381584;19;20402;-74
2022/12/05 04:34:10;;;;;;;;;;;;;;;4.38;78.64;98236.09;7385013;19;20334;-74
2022/12/05 04:36:49;;;;;;;;;;;;;;;4.40;78.76;98237.63;7387238;19;19965;-74
2022/12/05 04:39:20;;;;;;;;;;;;;;;4.45;78.82;98252.13;7387361;19;19935;-75
2022/12/05 04:41:48;;;;;;;;;;;;;;;4.45;78.92;98246.91;7383862;19;19922;-74
2022/12/05 04:44:15;;;;;;;;;;;;;;;4.70;78.85;98259.72;7386721;19;19915;-74
2022/12/05 04:46:42;;;;;;;;;;;;;;;4.75;78.66;98265.44;7383375;19;19922;-75
2022/12/05 04:49:10;;;;;;;;;;;;;;;4.87;78.32;98262.78;7384490;19;19915;-74
2022/12/05 04:51:36;;;;;;;;;;;;;;;4.65;78.75;98263.69;7384092;19;20268;-74
2022/12/05 04:54:04;;;;;;;;;;;;;;;4.61;78.81;98266.53;7385414;19;20296;-74
2022/12/05 04:56:33;;;;;;;;;;;;;;;4.64;78.92;98273.34;7387139;19;19923;-74
2022/12/05 04:59:00;;;;;;;;;;;;;;;4.65;78.71;98264.50;7387645;19;19919;-74
2022/12/05 05:01:29;;;;;;;;;;;;;;;4.60;79.03;98264.03;7385583;19;19927;-74
2022/12/05 05:04:06;;;;;;;;;;;;;;;4.65;79.00;98264.50;7380019;19;19914;-74
2022/12/05 05:06:35;;;;;;;;;;;;;;;4.72;79.04;98268.31;7385512;19;19956;-74
2022/12/05 05:09:01;;;;;;;;;;;;;;;4.59;79.23;98265.81;7386577;19;19931;-74
2022/12/05 05:11:29;;;;;;;;;;;;;;;4.64;78.94;98265.47;7385065;19;19955;-74
2022/12/05 05:13:56;;;;;;;;;;;;;;;4.68;79.14;98272.13;7381767;19;19923;-73
2022/12/05 05:16:25;;;;;;;;;;;;;;;4.75;79.13;98275.09;7385678;19;19919;-74
2022/12/05 05:18:52;;;;;;;;;;;;;;;4.66;79.26;98265.34;7383375;19;19910;-74
2022/12/05 05:21:19;;;;;;;;;;;;;;;4.71;79.20;98269.25;7380372;19;19919;-74
2022/12/05 05:23:46;;;;;;;;;;;;;;;4.71;78.94;98274.50;7384444;19;19923;-74
2022/12/05 05:26:13;;;;;;;;;;;;;;;4.73;78.95;98275.22;7385671;19;20245;-74
2022/12/05 05:28:39;;;;;;;;;;;;;;;4.75;79.02;98282.97;7387123;19;19926;-75
2022/12/05 05:31:06;;;;;;;;;;;;;;;4.88;78.22;98285.44;7384442;19;19922;-74
2022/12/05 05:33:33;;;;;;;;;;;;;;;5.00;77.46;98298.41;7382954;19;19918;-74
2022/12/05 05:36:10;;;;;;;;;;;;;;;4.94;77.07;98300.69;7382202;19;19942;-74
2022/12/05 05:38:37;;;;;;;;;;;;;;;4.90;77.24;98302.72;7381825;19;19925;-74
2022/12/05 05:41:04;;;;;;;;;;;;;;;4.94;76.40;98295.44;7382765;19;19930;-74
2022/12/05 05:43:30;;;;;;;;;;;;;;;4.89;76.84;98302.84;7383266;19;19930;-74
2022/12/05 05:46:00;;;;;;;;;;;;;;;4.91;76.48;98301.75;7383878;19;19950;-74
2022/12/05 05:48:31;;;;;;;;;;;;;;;4.89;76.58;98315.94;7387227;19;19923;-75
2022/12/05 05:51:01;;;;;;;;;;;;;;;4.98;75.83;98318.69;7381731;19;20246;-74
2022/12/05 05:53:27;;;;;;;;;;;;;;;4.85;76.79;98331.09;7377790;19;21852;-74
2022/12/05 05:55:54;;;;;;;;;;;;;;;4.86;76.74;98318.81;7379853;19;19922;-74
2022/12/05 05:58:22;;;;;;;;;;;;;;;4.96;76.10;98325.00;7386364;19;20315;-74
2022/12/05 06:00:49;;;;;;;;;;;;;;;4.98;76.00;98316.06;7389964;19;19911;-75
2022/12/05 06:03:22;;;;;;;;;;;;;;;4.81;76.72;98317.38;7386401;19;20027;-75
2022/12/05 06:06:02;;;;;;;;;;;;;;;4.87;77.00;98315.22;7386762;19;19927;-74
2022/12/05 06:08:33;;;;;;;;;;;;;;;4.84;77.47;98311.91;7388436;19;19935;-74
2022/12/05 06:11:14;;;;;;;;;;;;;;;4.82;77.50;98308.56;7381287;19;19922;-74
2022/12/05 06:13:48;;;;;;;;;;;;;;;4.78;78.29;98311.56;7383993;19;19941;-74
2022/12/05 06:16:15;;;;;;;;;;;;;;;4.77;78.54;98309.91;7385778;19;20342;-74
2022/12/05 06:18:48;;;;;;;;;;;;;;;4.84;78.35;98314.53;7385711;19;19925;-74
2022/12/05 06:21:16;;;;;;;;;;;;;;;4.78;78.45;98308.94;7387171;19;19934;-75
2022/12/05 06:23:43;;;;;;;;;;;;;;;4.75;78.87;98302.13;7384203;19;19943;-76
2022/12/05 06:26:13;;;;;;;;;;;;;;;4.94;77.94;98306.75;7378531;19;19986;-75
2022/12/05 06:28:40;;;;;;;;;;;;;;;4.83;78.21;98304.97;7379268;19;19962;-75
2022/12/05 06:31:12;;;;;;;;;;;;;;;4.87;78.17;98307.34;7380324;19;20297;-74
2022/12/05 06:33:43;;;;;;;;;;;;;;;4.82;78.22;98311.19;7379398;19;19942;-74
2022/12/05 06:36:14;;;;;;;;;;;;;;;4.87;78.19;98320.47;7376366;19;19919;-75
2022/12/05 06:38:43;;;;;;;;;;;;;;;4.89;78.49;98324.63;7381534;19;19915;-75
2022/12/05 06:41:11;;;;;;;;;;;;;;;4.95;78.22;98339.91;7384182;19;19947;-75
2022/12/05 06:43:37;;;;;;;;;;;;;;;5.05;77.61;98351.31;7381866;19;20268;-75
2022/12/05 06:46:05;;;;;;;;;;;;;;;5.10;77.25;98356.19;7383863;19;19953;-75
2022/12/05 06:48:31;;;;;;;;;;;;;;;5.00;76.08;98352.63;7387918;19;19936;-75
2022/12/05 06:50:59;;;;;;;;;;;;;;;5.01;75.75;98346.44;7383490;19;19915;-75
2022/12/05 06:53:26;;;;;;;;;;;;;;;4.88;76.33;98351.00;7385385;19;19929;-75
2022/12/05 06:55:56;;;;;;;;;;;;;;;5.07;76.44;98354.63;7386651;19;19927;-75
2022/12/05 06:58:23;;;;;;;;;;;;;;;5.00;75.91;98356.09;7383008;19;19956;-75
2022/12/05 07:03:35;;;;;;;;;;;;;;;4.95;76.31;98355.63;7386898;19;19940;-75
2022/12/05 07:06:02;;;;;;;;;;;;;;;5.03;76.71;98368.97;7394148;19;19939;-75
2022/12/05 07:08:28;;;;;;;;;;;;;;;5.07;76.39;98367.75;7390617;19;19926;-75
2022/12/05 07:10:55;;;;;;;;;;;;;;;5.10;76.80;98356.19;7391095;19;19931;-75
2022/12/05 07:13:21;;;;;;;;;;;;;;;5.02;77.53;98351.53;7390980;19;19936;-75
2022/12/05 07:15:48;;;;;;;;;;;;;;;5.24;77.25;98355.13;7391583;19;19930;-75
2022/12/05 07:18:16;;;;;;;;;;;;;;;5.22;77.24;98357.84;7383393;19;20509;-75
2022/12/05 07:20:42;;;;;;;;;;;;;;;5.12;77.54;98366.56;7389729;19;19926;-75
2022/12/05 07:23:29;;;;;;;;;;;;;;;5.28;77.80;98377.50;7393926;19;19914;-75
2022/12/05 07:25:59;;;;;;;;;;;;;;;5.34;77.33;98390.13;7391906;19;19934;-75
2022/12/05 07:28:25;;;;;;;;;;;;;;;5.27;76.89;98400.28;7389650;19;19923;-75
2022/12/05 07:31:02;;;;;;;;;;;;;;;5.24;76.74;98399.69;7393249;19;19930;-75
2022/12/05 07:33:28;;;;;;;;;;;;;;;5.30;76.14;98399.19;7387409;19;19928;-75
2022/12/05 07:36:01;;;;;;;;;;;;;;;5.23;76.74;98398.00;7388057;19;19923;-75
2022/12/05 07:38:28;;;;;;;;;;;;;;;5.35;76.41;98397.06;7390697;19;19934;-75
2022/12/05 07:40:55;;;;;;;;;;;;;;;5.32;76.97;98406.94;7389101;19;20291;-75
2022/12/05 07:43:36;;;;;;;;;;;;;;;5.23;76.92;98405.88;7393911;19;19994;-75
2022/12/05 07:46:03;;;;;;;;;;;;;;;5.23;76.76;98393.59;7394565;19;19930;-75
2022/12/05 07:48:30;;;;;;;;;;;;;;;5.25;76.83;98396.94;7394117;19;19922;-75
2022/12/05 07:51:00;;;;;;;;;;;;;;;5.43;76.22;98399.06;7388415;19;20310;-75
2022/12/05 07:53:27;;;;;;;;;;;;;;;5.44;76.06;98400.72;7389219;19;19950;-74
2022/12/05 07:55:53;;;;;;;;;;;;;;;5.53;75.66;98399.13;7392692;19;19941;-75
2022/12/05 07:58:20;;;;;;;;;;;;;;;5.42;76.33;98402.63;7390332;19;19923;-75
2022/12/05 08:00:46;;;;;;;;;;;;;;;5.42;76.42;98400.81;7388590;19;19946;-75
2022/12/05 08:03:13;;;;;;;;;;;;;;;5.39;76.49;98402.88;7393936;19;20353;-74
2022/12/05 08:05:40;;;;;;;;;;;;;;;5.38;77.28;98399.44;7388653;19;20270;-75
2022/12/05 08:08:06;;;;;;;;;;;;;;;5.45;77.23;98402.38;7388440;19;19943;-73
2022/12/05 08:10:33;;;;;;;;;;;;;;;5.43;76.77;98402.53;7388306;19;19919;-73
2022/12/05 08:13:00;;;;;;;;;;;;;;;5.31;77.54;98400.88;7389278;19;20404;-73
2022/12/05 08:15:27;;;;;;;;;;;;;;;5.52;77.00;98395.69;7389105;19;19922;-73
2022/12/05 08:17:53;;;;;;;;;;;;;;;5.60;76.71;98408.19;7392316;19;19918;-74
2022/12/05 08:20:20;;;;;;;;;;;;;;;5.63;76.17;98408.78;7388309;19;20798;-74
2022/12/05 08:23:07;;;;;;;;;;;;;;;5.61;76.09;98410.72;7388511;19;20289;-74
2022/12/05 08:25:33;;;;;;;;;;;;;;;5.62;75.75;98422.03;7388246;19;19940;-73
2022/12/05 08:28:02;;;;;;;;;;;;;;;5.65;75.83;98417.38;7387182;19;19943;-73
2022/12/05 08:30:28;;;;;;;;;;;;;;;5.58;76.31;98424.09;7387912;19;19922;-73
2022/12/05 08:32:55;;;;;;;;;;;;;;;5.61;76.15;98423.84;7389651;19;19923;-73
2022/12/05 08:35:21;;;;;;;;;;;;;;;5.66;75.54;98424.31;7389552;19;20267;-73
2022/12/05 08:37:48;;;;;;;;;;;;;;;5.67;75.76;98430.38;7389652;19;19919;-73
2022/12/05 08:40:14;;;;;;;;;;;;;;;5.64;75.74;98441.13;7387280;19;20286;-73
2022/12/05 08:42:41;;;;;;;;;;;;;;;5.62;76.21;98436.00;7387309;19;19926;-73
2022/12/05 08:45:08;;;;;;;;;;;;;;;5.76;75.74;98437.50;7388228;19;19915;-73
2022/12/05 08:47:35;;;;;;;;;;;;;;;5.78;75.43;98435.59;7391178;19;19919;-73
2022/12/05 08:50:01;;;;;;;;;;;;;;;5.81;74.56;98439.75;7385382;19;20398;-73
2022/12/05 08:52:28;;;;;;;;;;;;;;;5.91;74.28;98445.94;7389032;19;19910;-73
2022/12/05 08:54:55;;;;;;;;;;;;;;;5.69;74.49;98455.53;7391396;19;19918;-72
2022/12/05 08:57:22;;;;;;;;;;;;;;;5.62;74.45;98450.91;7390029;19;20330;-73
2022/12/05 08:59:48;;;;;;;;;;;;;;;5.36;75.06;98452.97;7386583;19;19910;-75
2022/12/05 09:02:15;;;;;;;;;;;;;;;5.55;75.01;98450.53;7386121;19;20336;-75
2022/12/05 09:04:42;;;;;;;;;;;;;;;5.62;74.63;98454.34;7388287;19;19923;-75
2022/12/05 09:07:08;;;;;;;;;;;;;;;5.70;75.10;98451.94;7390400;19;19910;-75
2022/12/05 09:09:35;;;;;;;;;;;;;;;5.75;75.38;98454.22;7391868;19;20240;-75
2022/12/05 09:12:02;;;;;;;;;;;;;;;5.86;75.45;98456.81;7386965;19;19923;-73
2022/12/05 09:14:31;;;;;;;;;;;;;;;5.72;76.25;98452.66;7385302;19;19914;-73
2022/12/05 09:16:59;;;;;;;;;;;;;;;5.78;76.43;98455.75;7373278;19;19953;-74
2022/12/05 09:19:27;;;;;;;;;;;;;;;5.88;76.08;98464.56;7383940;19;19927;-74
2022/12/05 09:21:54;;;;;;;;;;;;;;;5.89;76.53;98466.22;7380529;19;19947;-74
2022/12/05 09:24:21;;;;;;;;;;;;;;;6.04;76.05;98472.06;7388957;19;19922;-74
2022/12/05 09:26:47;;;;;;;;;;;;;;;5.91;75.37;98474.81;7387026;19;19927;-73
2022/12/05 09:29:14;;;;;;;;;;;;;;;5.90;75.21;98474.00;7389785;19;19923;-74
2022/12/05 09:31:43;;;;;;;;;;;;;;;5.91;74.99;98485.31;7384064;19;19927;-73
2022/12/05 09:34:12;;;;;;;;;;;;;;;6.08;74.41;98482.22;7384359;19;19919;-74
2022/12/05 09:36:38;;;;;;;;;;;;;;;6.12;75.07;98488.03;7385999;19;19941;-74
2022/12/05 09:39:05;;;;;;;;;;;;;;;6.07;75.27;98488.41;7381087;19;20267;-74
2022/12/05 09:44:35;;;;;;;;;;;;;;;6.01;75.42;98482.81;7387243;19;19927;-74
2022/12/05 09:47:03;;;;;;;;;;;;;;;6.15;75.45;98488.59;7386243;19;20338;-74
2022/12/05 09:49:29;;;;;;;;;;;;;;;6.18;75.26;98492.78;7384545;19;20412;-74
2022/12/05 09:51:56;;;;;;;;;;;;;;;6.32;75.04;98489.06;7384910;19;19910;-74
2022/12/05 09:54:23;;;;;;;;;;;;;;;6.32;75.59;98486.41;7383255;19;19939;-74
2022/12/05 09:56:50;;;;;;;;;;;;;;;6.47;75.13;98482.50;7388815;19;19922;-74
2022/12/05 09:59:19;;;;;;;;;;;;;;;6.63;74.73;98481.22;7386085;19;20350;-74
2022/12/05 10:01:56;;;;;;;;;;;;;;;6.71;73.92;98492.75;7386137;19;19922;-74
2022/12/05 10:04:23;;;;;;;;;;;;;;;6.70;73.65;98492.91;7381979;19;19943;-74
2022/12/05 10:07:08;;;;;;;;;;;;;;;6.71;74.03;98492.75;7386859;19;19922;-74
2022/12/05 10:09:53;;;;;;;;;;;;;;;6.61;73.98;98494.53;7387545;19;20271;-74
2022/12/05 10:12:36;;;;;;;;;;;;;;;6.65;74.52;98490.66;7389641;19;19927;-74
2022/12/05 10:15:03;;;;;;;;;;;;;;;6.62;74.65;98487.47;7381414;19;19915;-74
2022/12/05 10:17:31;;;;;;;;;;;;;;;6.58;74.28;98492.97;7388148;19;19927;-74
2022/12/05 10:19:59;;;;;;;;;;;;;;;6.38;74.87;98485.91;7385668;19;19919;-74
2022/12/05 10:22:27;;;;;;;;;;;;;;;6.28;75.57;98496.31;7382970;19;19943;-74
2022/12/05 10:24:55;;;;;;;;;;;;;;;6.25;76.23;98499.22;7381371;19;20770;-75
2022/12/05 10:27:27;;;;;;;;;;;;;;;6.20;76.85;98493.50;7388289;19;19922;-74
2022/12/05 10:29:59;;;;;;;;;;;;;;;6.14;77.25;98491.38;7386764;19;20420;-74
2022/12/05 10:32:27;;;;;;;;;;;;;;;6.24;77.72;98491.44;7386511;19;20598;-74
2022/12/05 10:34:54;;;;;;;;;;;;;;;6.34;77.92;98487.09;7382931;19;19911;-75
2022/12/05 10:37:21;;;;;;;;;;;;;;;6.37;77.99;98486.84;7381951;19;19915;-75
2022/12/05 10:39:48;;;;;;;;;;;;;;;6.43;77.94;98475.03;7389670;19;20029;-74
2022/12/05 10:42:16;;;;;;;;;;;;;;;6.58;77.48;98479.84;7386318;19;19923;-74
2022/12/05 10:44:43;;;;;;;;;;;;;;;6.58;77.33;98482.47;7392317;19;19919;-73
2022/12/05 10:47:09;;;;;;;;;;;;;;;6.50;77.54;98482.28;7392330;19;19914;-74
2022/12/05 10:49:36;;;;;;;;;;;;;;;6.65;77.30;98481.94;7396264;19;19919;-74
2022/12/05 10:52:04;;;;;;;;;;;;;;;6.74;77.51;98474.13;7388262;19;19930;-74
2022/12/05 10:54:31;;;;;;;;;;;;;;;6.66;77.33;98473.09;7387469;19;19925;-74
2022/12/05 10:56:58;;;;;;;;;;;;;;;6.75;77.34;98472.31;7389026;19;19915;-74
2022/12/05 10:59:25;;;;;;;;;;;;;;;6.74;77.05;98481.16;7396335;19;19947;-74
2022/12/05 11:01:53;;;;;;;;;;;;;;;6.70;77.45;98477.97;7394520;19;19910;-74
2022/12/05 11:04:22;;;;;;;;;;;;;;;6.80;76.75;98488.56;7394227;19;19918;-74
2022/12/05 11:06:49;;;;;;;;;;;;;;;6.80;76.76;98473.59;7394053;19;19946;-75
2022/12/05 11:09:27;;;;;;;;;;;;;;;6.80;77.13;98480.66;7396768;19;19919;-74
2022/12/05 11:12:13;;;;;;;;;;;;;;;6.72;76.70;98470.78;7389379;19;19978;-74
2022/12/05 11:14:40;;;;;;;;;;;;;;;6.85;77.23;98467.13;7387013;19;19914;-74
2022/12/05 11:17:08;;;;;;;;;;;;;;;7.02;76.88;98466.50;7391382;19;19936;-74
2022/12/05 11:19:36;;;;;;;;;;;;;;;7.03;76.43;98470.84;7392758;19;19918;-74
2022/12/05 11:22:04;;;;;;;;;;;;;;;7.14;75.99;98469.91;7392062;19;19929;-74
2022/12/05 11:24:32;;;;;;;;;;;;;;;7.10;76.05;98471.94;7393397;19;19911;-74
2022/12/05 11:26:59;;;;;;;;;;;;;;;7.08;75.83;98471.25;7393064;19;19942;-74
2022/12/05 11:29:37;;;;;;;;;;;;;;;7.28;75.85;98480.06;7389477;19;19919;-74
2022/12/05 11:32:05;;;;;;;;;;;;;;;7.38;75.82;98467.78;7391835;19;19939;-76
2022/12/05 11:34:37;;;;;;;;;;;;;;;7.46;75.68;98462.69;7390313;19;19922;-75
2022/12/05 11:37:05;;;;;;;;;;;;;;;7.32;75.97;98455.16;7392970;19;19914;-74
2022/12/05 11:39:32;;;;;;;;;;;;;;;7.00;76.17;98453.50;7389778;19;19919;-75
2022/12/05 11:42:09;;;;;;;;;;;;;;;7.08;75.90;98459.88;7389062;19;19982;-75
2022/12/05 11:44:38;;;;;;;;;;;;;;;7.08;76.05;98467.78;7389501;19;20650;-75
2022/12/05 11:47:14;;;;;;;;;;;;;;;7.36;75.69;98464.44;7391262;19;19934;-73
2022/12/05 11:50:00;;;;;;;;;;;;;;;7.55;75.52;98465.47;7390750;19;20775;-74
2022/12/05 11:52:48;;;;;;;;;;;;;;;7.60;75.16;98458.84;7392888;19;19926;-73
2022/12/05 11:55:21;;;;;;;;;;;;;;;7.83;74.96;98458.63;7394509;19;20357;-74
2022/12/05 11:58:01;;;;;;;;;;;;;;;7.69;74.09;98460.66;7396884;19;19936;-74
2022/12/05 12:00:40;;;;;;;;;;;;;;;7.93;73.21;98458.63;7391323;19;19929;-75
2022/12/05 12:03:27;;;;;;;;;;;;;;;7.58;74.22;98457.31;7392833;19;20321;-75
2022/12/05 12:06:02;;;;;;;;;;;;;;;7.68;74.21;98455.53;7387030;19;19922;-75
2022/12/05 12:08:29;;;;;;;;;;;;;;;7.67;74.00;98451.25;7394336;19;20339;-75
2022/12/05 12:10:58;;;;;;;;;;;;;;;7.72;74.37;98458.75;7392487;19;19918;-75
2022/12/05 12:13:28;;;;;;;;;;;;;;;7.73;74.16;98453.31;7394188;19;19922;-75
2022/12/05 12:16:00;;;;;;;;;;;;;;;7.70;74.37;98448.34;7395194;19;19962;-75
2022/12/05 12:18:42;;;;;;;;;;;;;;;7.54;74.19;98448.84;7392580;19;19994;-75
2022/12/05 12:21:26;;;;;;;;;;;;;;;7.33;74.60;98448.94;7389719;19;20338;-75
2022/12/05 12:24:00;;;;;;;;;;;;;;;7.33;74.82;98453.38;7393155;19;19919;-74
2022/12/05 12:26:43;;;;;;;;;;;;;;;7.42;74.45;98449.91;7395744;19;19918;-75
2022/12/05 12:29:25;;;;;;;;;;;;;;;7.30;74.90;98449.19;7393552;19;19925;-76
2022/12/05 12:32:04;;;;;;;;;;;;;;;7.55;74.35;98453.13;7386429;19;20302;-75
2022/12/05 12:34:40;;;;;;;;;;;;;;;7.41;74.43;98451.72;7387513;19;19933;-75
2022/12/05 12:37:12;;;;;;;;;;;;;;;7.33;75.05;98454.19;7386515;19;19935;-75
2022/12/05 12:39:58;;;;;;;;;;;;;;;7.37;74.92;98452.97;7389362;19;19922;-75
2022/12/05 12:42:26;;;;;;;;;;;;;;;7.39;74.75;98451.00;7390325;19;19940;-74
2022/12/05 12:45:12;;;;;;;;;;;;;;;7.31;74.61;98456.13;7389135;19;19926;-75
2022/12/05 12:47:47;;;;;;;;;;;;;;;7.53;74.55;98465.63;7394117;19;19938;-75
2022/12/05 12:50:14;;;;;;;;;;;;;;;7.39;74.67;98452.81;7389596;19;19922;-75
2022/12/05 12:52:59;;;;;;;;;;;;;;;7.46;74.87;98457.41;7390763;19;19951;-75
2022/12/05 12:55:26;;;;;;;;;;;;;;;7.55;74.35;98457.56;7385868;19;19915;-75
2022/12/05 12:58:28;;;;;;;;;;;;;;;7.44;73.66;98451.44;7385390;19;20275;-75
2022/12/05 13:01:13;;;;;;;;;;;;;;;7.80;73.42;98446.56;7376687;19;20652;-75
2022/12/05 13:04:01;;;;;;;;;;;;;;;7.60;73.47;98447.47;7360074;19;19919;-74
2022/12/05 13:06:32;;;;;;;;;;;;;;;7.52;73.39;98440.25;7363379;19;19911;-75
2022/12/05 13:09:01;;;;;;;;;;;;;;;7.68;73.80;98439.72;7359704;19;20347;-74
2022/12/05 13:11:28;;;;;;;;;;;;;;;7.58;74.31;98438.88;7361564;19;19955;-74
2022/12/05 13:13:55;;;;;;;;;;;;;;;7.61;74.66;98441.22;7371217;19;19918;-75
2022/12/05 13:16:32;;;;;;;;;;;;;;;7.55;74.11;98439.97;7383222;19;19951;-75
2022/12/05 13:19:04;;;;;;;;;;;;;;;7.68;74.56;98443.19;7386555;19;19919;-75
2022/12/05 13:21:31;;;;;;;;;;;;;;;7.49;74.03;98437.88;7386267;19;19943;-75
2022/12/05 13:24:02;;;;;;;;;;;;;;;7.70;73.69;98443.06;7387667;19;19918;-76
2022/12/05 13:26:30;;;;;;;;;;;;;;;7.71;73.37;98444.72;7382755;19;19918;-76